Time;durP1;ratioP1;P1;durP2;ratioP2;P2;SDS_P1;SDS_P2;PMS_P1;PMS_P2;Temp;Humidity;BMP_temperature;BMP_pressure;BME280_temperature;BME280_humidity;BME280_pressure;Samples;Min_cycle;Max_cycle;Signal;HPM_P1;HPM_P2
2023/06/16 00:01:57;;;;;;;3.67;3.17;;;16.70;83.30;;;;;;4953626;29;20046;-62
2023/06/16 00:04:25;;;;;;;3.97;3.55;;;16.60;83.80;;;;;;4943077;29;20503;-61
2023/06/16 00:06:58;;;;;;;3.65;3.15;;;16.50;84.10;;;;;;4953801;29;20110;-61
2023/06/16 00:09:26;;;;;;;4.05;3.05;;;16.50;84.30;;;;;;4954037;29;20224;-61
2023/06/16 00:11:53;;;;;;;4.32;3.90;;;16.30;84.70;;;;;;4929716;29;20502;-61
2023/06/16 00:14:22;;;;;;;4.68;3.17;;;16.30;85.10;;;;;;4947433;29;20424;-61
2023/06/16 00:16:57;;;;;;;3.45;3.15;;;16.20;85.60;;;;;;4941654;29;20055;-61
2023/06/16 00:19:32;;;;;;;3.78;3.38;;;16.10;85.90;;;;;;4941482;29;20119;-62
2023/06/16 00:22:04;;;;;;;3.38;3.08;;;16.00;86.30;;;;;;4939933;29;20039;-62
2023/06/16 00:24:32;;;;;;;3.28;2.97;;;15.90;86.70;;;;;;4941828;29;20038;-62
2023/06/16 00:26:58;;;;;;;3.72;3.33;;;;;;;;;;4945299;29;20298;-61
2023/06/16 00:29:31;;;;;;;3.85;3.33;;;15.70;87.50;;;;;;4946697;28;20034;-61
2023/06/16 00:32:03;;;;;;;3.83;3.53;;;15.70;88.60;;;;;;4952825;29;20086;-61
2023/06/16 00:34:31;;;;;;;3.75;3.38;;;15.60;89.10;;;;;;4948434;29;20038;-61
2023/06/16 00:36:57;;;;;;;4.40;4.00;;;15.60;90.00;;;;;;4952967;29;20023;-61
2023/06/16 00:39:23;;;;;;;4.38;3.50;;;15.50;90.10;;;;;;4950871;29;20039;-62
2023/06/16 00:42:03;;;;;;;4.78;3.45;;;15.40;90.40;;;;;;4952903;29;20035;-61
2023/06/16 00:44:31;;;;;;;3.55;3.25;;;15.40;90.70;;;;;;4951232;29;20027;-62
2023/06/16 00:46:57;;;;;;;7.30;4.15;;;15.30;91.00;;;;;;4952724;29;20127;-62
2023/06/16 00:49:28;;;;;;;5.63;4.25;;;15.20;91.30;;;;;;4953565;29;20105;-62
2023/06/16 00:52:10;;;;;;;7.18;4.30;;;15.20;91.60;;;;;;4953000;29;20028;-63
2023/06/16 00:54:42;;;;;;;5.00;4.13;;;15.10;91.90;;;;;;4953167;29;20059;-62
2023/06/16 00:57:08;;;;;;;5.68;4.22;;;15.10;92.20;;;;;;4953567;29;20049;-62
2023/06/16 00:59:36;;;;;;;4.00;3.58;;;15.00;92.50;;;;;;4952758;29;20755;-62
2023/06/16 01:02:03;;;;;;;5.22;3.70;;;15.00;92.80;;;;;;4949326;29;20065;-62
2023/06/16 01:04:29;;;;;;;4.72;4.03;;;15.00;93.10;;;;;;4952514;29;20070;-62
2023/06/16 01:07:11;;;;;;;4.72;4.00;;;14.90;93.20;;;;;;4952428;29;20038;-61
2023/06/16 01:09:57;;;;;;;5.35;4.22;;;14.90;93.40;;;;;;4939231;29;20114;-62
2023/06/16 01:12:48;;;;;;;5.95;4.50;;;15.00;93.60;;;;;;4942737;29;20033;-61
2023/06/16 01:15:20;;;;;;;6.85;4.40;;;15.00;93.60;;;;;;4945963;29;20023;-62
2023/06/16 01:17:47;;;;;;;6.18;4.07;;;15.00;93.50;;;;;;4952562;29;20412;-62
2023/06/16 01:20:38;;;;;;;5.85;4.63;;;15.00;93.50;;;;;;4953101;29;20469;-61
2023/06/16 01:23:17;;;;;;;6.65;4.18;;;15.10;93.40;;;;;;4953016;29;20110;-62
2023/06/16 01:25:47;;;;;;;8.07;5.53;;;15.00;93.70;;;;;;4952269;29;20109;-65
2023/06/16 01:28:18;;;;;;;6.10;4.60;;;15.10;93.80;;;;;;4953397;29;20039;-62
2023/06/16 01:30:46;;;;;;;5.43;4.22;;;15.00;93.80;;;;;;4949056;29;20038;-62
2023/06/16 01:33:13;;;;;;;6.88;4.72;;;15.00;94.10;;;;;;4927228;29;20071;-63
2023/06/16 01:35:40;;;;;;;6.53;4.95;;;14.90;94.30;;;;;;4952940;29;20106;-64
2023/06/16 01:38:07;;;;;;;5.28;4.53;;;14.90;94.60;;;;;;4952357;29;20031;-62
2023/06/16 01:40:34;;;;;;;5.72;4.60;;;14.80;94.90;;;;;;4954481;28;20035;-61
2023/06/16 01:43:01;;;;;;;7.97;5.18;;;14.70;95.10;;;;;;4955968;29;20089;-63
2023/06/16 01:45:28;;;;;;;8.23;6.00;;;14.70;95.40;;;;;;4956718;29;20465;-62
2023/06/16 01:47:54;;;;;;;7.78;5.63;;;14.70;95.70;;;;;;4955378;28;20039;-62
2023/06/16 01:50:20;;;;;;;10.73;6.53;;;14.60;95.80;;;;;;4953860;29;20031;-62
2023/06/16 01:52:46;;;;;;;11.82;6.53;;;14.80;99.90;;;;;;4955870;29;20027;-62
2023/06/16 01:55:12;;;;;;;9.20;5.65;;;14.60;99.90;;;;;;4955592;29;20051;-62
2023/06/16 01:57:38;;;;;;;7.82;5.38;;;14.70;99.90;;;;;;4956260;29;20027;-62
2023/06/16 02:00:24;;;;;;;7.72;5.47;;;;;;;;;;4955207;29;20045;-62
2023/06/16 02:02:52;;;;;;;9.77;5.78;;;;;;;;;;4955627;29;20106;-62
2023/06/16 02:05:21;;;;;;;7.25;5.13;;;;;;;;;;4955671;29;20143;-61
2023/06/16 02:07:49;;;;;;;7.80;5.55;;;;;;;;;;4950702;29;20380;-61
2023/06/16 02:10:15;;;;;;;8.23;5.13;;;14.60;96.40;;;;;;4955819;29;20509;-62
2023/06/16 02:12:42;;;;;;;7.10;4.80;;;14.50;96.80;;;;;;4940601;29;20383;-63
2023/06/16 02:15:08;;;;;;;6.50;5.43;;;14.40;96.90;;;;;;4948088;29;20110;-61
2023/06/16 02:17:34;;;;;;;8.15;5.57;;;14.30;97.30;;;;;;4954901;29;20034;-62
2023/06/16 02:19:59;;;;;;;8.05;5.65;;;14.30;97.80;;;;;;4954947;29;20031;-62
2023/06/16 02:22:25;;;;;;;6.70;5.53;;;14.20;98.00;;;;;;4956130;29;20156;-62
2023/06/16 02:24:50;;;;;;;6.72;5.03;;;14.20;98.30;;;;;;4955035;29;20038;-62
2023/06/16 02:27:16;;;;;;;8.18;5.50;;;14.10;98.60;;;;;;4955896;29;20110;-61
2023/06/16 02:29:42;;;;;;;7.00;5.35;;;14.10;99.00;;;;;;4954752;29;20038;-63
2023/06/16 02:32:07;;;;;;;8.32;5.93;;;14.10;99.30;;;;;;4949664;29;20429;-61
2023/06/16 02:34:34;;;;;;;7.30;5.35;;;14.10;99.60;;;;;;4954622;29;20026;-61
2023/06/16 02:37:00;;;;;;;7.05;4.90;;;14.10;99.60;;;;;;4954662;29;20043;-61
2023/06/16 02:39:26;;;;;;;7.35;5.78;;;14.00;99.80;;;;;;4955243;29;20486;-62
2023/06/16 02:41:52;;;;;;;5.78;4.95;;;14.00;99.90;;;;;;4954973;29;20043;-61
2023/06/16 02:44:17;;;;;;;7.10;5.45;;;14.00;99.90;;;;;;4954999;29;20031;-62
2023/06/16 02:46:43;;;;;;;6.80;5.03;;;14.10;99.90;;;;;;4955291;29;20027;-64
2023/06/16 02:49:08;;;;;;;6.68;4.90;;;14.20;99.90;;;;;;4953137;29;20035;-62
2023/06/16 02:51:34;;;;;;;7.47;5.28;;;14.20;99.90;;;;;;4955753;28;20058;-61
2023/06/16 02:54:00;;;;;;;6.45;5.65;;;14.20;99.90;;;;;;4954556;29;20239;-63
2023/06/16 02:56:28;;;;;;;7.97;5.75;;;14.20;99.90;;;;;;4955016;29;20051;-62
2023/06/16 02:58:53;;;;;;;7.90;6.30;;;14.20;99.90;;;;;;4951407;29;20039;-63
2023/06/16 03:01:21;;;;;;;8.20;6.28;;;14.30;99.90;;;;;;4940497;29;20810;-62
2023/06/16 03:03:48;;;;;;;8.63;5.45;;;14.30;99.90;;;;;;4941210;29;20031;-62
2023/06/16 03:06:14;;;;;;;8.25;5.38;;;14.40;99.90;;;;;;4949836;29;20156;-62
2023/06/16 03:08:39;;;;;;;6.78;5.85;;;14.40;99.90;;;;;;4955524;29;20031;-63
2023/06/16 03:11:05;;;;;;;8.85;5.50;;;14.40;99.90;;;;;;4954832;29;20089;-62
2023/06/16 03:13:31;;;;;;;8.52;6.03;;;14.40;99.90;;;;;;4955507;29;20111;-62
2023/06/16 03:15:57;;;;;;;7.03;5.35;;;;;;;;;;4954465;29;20027;-62
2023/06/16 03:18:24;;;;;;;7.70;5.70;;;;;;;;;;4955780;29;20041;-61
2023/06/16 03:20:49;;;;;;;7.88;5.65;;;14.30;99.90;;;;;;4954082;29;20054;-61
2023/06/16 03:23:16;;;;;;;9.00;6.20;;;;;;;;;;4951743;29;20469;-62
2023/06/16 03:25:42;;;;;;;6.93;5.45;;;14.30;99.90;;;;;;4945313;29;20027;-62
2023/06/16 03:28:07;;;;;;;7.85;5.95;;;14.30;99.90;;;;;;4947275;29;20032;-61
2023/06/16 03:30:33;;;;;;;8.48;6.03;;;14.30;99.90;;;;;;4943194;29;20118;-61
2023/06/16 03:32:59;;;;;;;9.32;5.85;;;14.30;99.90;;;;;;4953512;29;20848;-61
2023/06/16 03:35:25;;;;;;;11.55;6.22;;;;;;;;;;4953513;29;20039;-62
2023/06/16 03:37:51;;;;;;;7.93;5.65;;;;;;;;;;4953915;29;20027;-62
2023/06/16 03:40:17;;;;;;;9.15;5.68;;;14.50;99.90;;;;;;4942703;29;20034;-62
2023/06/16 03:42:43;;;;;;;7.63;5.80;;;14.50;99.90;;;;;;4954032;29;20031;-64
2023/06/16 03:45:09;;;;;;;7.45;5.72;;;14.50;99.90;;;;;;4953429;29;20499;-62
2023/06/16 03:47:35;;;;;;;6.38;5.40;;;14.50;99.90;;;;;;4954764;29;20062;-62
2023/06/16 03:50:00;;;;;;;9.07;5.00;;;14.50;99.90;;;;;;4941240;29;20059;-62
2023/06/16 03:52:26;;;;;;;12.55;5.95;;;14.50;99.90;;;;;;4932865;29;20038;-62
2023/06/16 03:54:52;;;;;;;7.30;5.03;;;14.50;99.90;;;;;;4945697;29;20055;-62
2023/06/16 03:57:18;;;;;;;6.82;5.40;;;14.50;99.90;;;;;;4947222;29;20035;-62
2023/06/16 03:59:43;;;;;;;6.32;5.03;;;14.50;99.90;;;;;;4944396;29;20042;-63
2023/06/16 04:02:09;;;;;;;7.53;4.75;;;14.50;99.90;;;;;;4946882;28;20039;-62
2023/06/16 04:04:35;;;;;;;9.30;5.22;;;14.50;99.90;;;;;;4953658;29;20066;-62
2023/06/16 04:07:01;;;;;;;8.57;5.53;;;14.50;99.90;;;;;;4953278;29;20112;-63
2023/06/16 04:09:27;;;;;;;8.15;5.47;;;14.50;99.90;;;;;;4953834;29;20090;-62
2023/06/16 04:11:53;;;;;;;8.88;5.07;;;14.50;99.90;;;;;;4953343;29;20436;-62
2023/06/16 04:14:19;;;;;;;11.00;5.55;;;14.60;99.90;;;;;;4953538;29;20031;-62
2023/06/16 04:16:44;;;;;;;6.50;5.40;;;14.70;99.90;;;;;;4953648;29;20026;-63
2023/06/16 04:19:11;;;;;;;6.78;5.45;;;14.70;99.90;;;;;;4946638;29;20039;-62
2023/06/16 04:21:37;;;;;;;5.45;4.35;;;14.70;99.90;;;;;;4954317;29;20074;-62
2023/06/16 04:24:03;;;;;;;6.07;4.57;;;14.70;99.90;;;;;;4953127;29;20592;-62
2023/06/16 04:26:29;;;;;;;6.35;5.05;;;14.70;99.90;;;;;;4939826;29;20042;-62
2023/06/16 04:28:55;;;;;;;5.60;4.90;;;14.70;99.90;;;;;;4940800;29;20126;-61
2023/06/16 04:31:29;;;;;;;7.88;5.38;;;14.80;99.90;;;;;;4942893;29;20032;-61
2023/06/16 04:33:57;;;;;;;8.48;5.38;;;14.80;99.90;;;;;;4935216;29;20111;-62
2023/06/16 04:36:25;;;;;;;7.45;5.85;;;14.90;99.90;;;;;;4944919;29;20019;-61
2023/06/16 04:38:52;;;;;;;7.68;5.95;;;14.90;99.90;;;;;;4952491;29;20046;-62
2023/06/16 04:41:17;;;;;;;6.90;5.90;;;15.00;99.90;;;;;;4953610;29;20366;-62
2023/06/16 04:43:43;;;;;;;6.55;4.93;;;15.10;99.90;;;;;;4951770;29;20042;-63
2023/06/16 04:46:09;;;;;;;6.40;5.15;;;15.20;99.90;;;;;;4953412;29;20031;-62
2023/06/16 04:48:35;;;;;;;9.32;6.00;;;15.20;99.90;;;;;;4953862;29;20035;-62
2023/06/16 04:51:00;;;;;;;6.95;5.60;;;15.30;99.90;;;;;;4951931;29;20479;-62
2023/06/16 04:53:27;;;;;;;8.07;5.95;;;15.40;99.90;;;;;;4953786;29;20023;-63
2023/06/16 04:55:53;;;;;;;10.30;6.05;;;15.50;99.90;;;;;;4940934;29;20052;-62
2023/06/16 04:58:19;;;;;;;7.60;5.63;;;15.60;99.90;;;;;;4928553;29;20039;-62
2023/06/16 05:00:44;;;;;;;6.75;5.38;;;15.70;99.90;;;;;;4942794;29;20173;-62
2023/06/16 05:03:10;;;;;;;12.27;5.70;;;15.80;99.90;;;;;;4937338;29;20071;-61
2023/06/16 05:05:35;;;;;;;10.07;5.63;;;15.90;99.90;;;;;;4952774;29;20114;-62
2023/06/16 05:08:01;;;;;;;6.88;5.35;;;16.00;99.90;;;;;;4952574;29;20030;-62
2023/06/16 05:10:27;;;;;;;6.90;5.20;;;16.10;99.90;;;;;;4953074;29;20072;-62
2023/06/16 05:12:52;;;;;;;6.75;5.18;;;16.20;99.90;;;;;;4953127;29;20035;-62
2023/06/16 05:15:18;;;;;;;5.10;4.60;;;16.30;99.90;;;;;;4931986;29;20057;-61
2023/06/16 05:17:44;;;;;;;7.07;4.88;;;16.40;99.90;;;;;;4950024;29;20024;-67
2023/06/16 05:20:10;;;;;;;6.18;4.78;;;16.60;99.90;;;;;;4934680;29;20330;-67
2023/06/16 05:22:35;;;;;;;8.98;5.97;;;16.80;99.90;;;;;;4949878;29;20027;-63
2023/06/16 05:25:01;;;;;;;10.63;6.18;;;17.00;99.90;;;;;;4952546;29;20027;-63
2023/06/16 05:27:27;;;;;;;11.35;7.13;;;17.10;99.90;;;;;;4943427;29;20035;-64
2023/06/16 05:29:54;;;;;;;10.20;6.78;;;17.10;99.90;;;;;;4928134;29;20094;-65
2023/06/16 05:32:21;;;;;;;10.70;7.72;;;17.20;99.90;;;;;;4935820;29;20468;-64
2023/06/16 05:34:48;;;;;;;10.70;6.65;;;17.20;99.90;;;;;;4938269;29;20461;-64
2023/06/16 05:37:15;;;;;;;11.80;6.45;;;17.20;99.90;;;;;;4945847;29;20023;-66
2023/06/16 05:39:45;;;;;;;9.90;6.53;;;17.20;99.90;;;;;;4938655;29;20043;-64
2023/06/16 05:42:13;;;;;;;10.52;6.63;;;17.30;99.90;;;;;;4942799;29;20126;-62
2023/06/16 05:44:39;;;;;;;7.95;6.03;;;17.30;99.90;;;;;;4939531;29;20054;-62
2023/06/16 05:47:05;;;;;;;7.57;6.07;;;17.30;99.90;;;;;;4940180;29;21155;-62
2023/06/16 05:49:30;;;;;;;10.02;5.72;;;17.40;99.90;;;;;;4941615;29;20042;-63
2023/06/16 05:51:57;;;;;;;10.30;5.63;;;17.60;99.90;;;;;;4938451;29;20911;-62
2023/06/16 05:54:23;;;;;;;7.43;5.00;;;17.70;99.90;;;;;;4941912;29;20102;-62
2023/06/16 05:56:48;;;;;;;10.15;6.32;;;17.80;99.90;;;;;;4951935;29;20114;-63
2023/06/16 05:59:14;;;;;;;9.27;5.95;;;17.90;99.90;;;;;;4951585;29;20174;-63
2023/06/16 06:01:39;;;;;;;8.15;5.30;;;18.00;99.90;;;;;;4944631;29;20040;-66
2023/06/16 06:04:05;;;;;;;8.48;6.90;;;18.20;99.90;;;;;;4951327;29;20400;-62
2023/06/16 06:06:30;;;;;;;11.07;6.38;;;18.30;99.90;;;;;;4948965;29;20432;-63
2023/06/16 06:08:56;;;;;;;8.65;6.28;;;18.50;99.90;;;;;;4938137;29;20468;-63
2023/06/16 06:11:22;;;;;;;8.65;5.72;;;18.50;99.90;;;;;;4944989;29;20039;-62
2023/06/16 06:13:48;;;;;;;7.20;5.75;;;18.60;99.90;;;;;;4950763;29;20031;-64
2023/06/16 06:16:13;;;;;;;6.20;5.35;;;18.60;99.90;;;;;;4951912;29;20032;-62
2023/06/16 06:18:43;;;;;;;10.52;6.20;;;18.70;99.90;;;;;;4949521;29;20071;-63
2023/06/16 06:21:09;;;;;;;11.75;6.07;;;18.80;99.90;;;;;;4947680;29;20082;-63
2023/06/16 06:23:34;;;;;;;11.07;6.13;;;19.00;99.90;;;;;;4950757;29;20053;-62
2023/06/16 06:26:00;;;;;;;10.98;6.28;;;19.20;99.90;;;;;;4933819;29;20105;-64
2023/06/16 06:28:25;;;;;;;9.98;6.30;;;19.30;99.90;;;;;;4955235;29;20031;-63
2023/06/16 06:30:51;;;;;;;9.23;5.70;;;19.40;99.90;;;;;;4950712;29;20086;-64
2023/06/16 06:33:17;;;;;;;12.20;5.80;;;19.50;99.90;;;;;;4952754;29;20035;-64
2023/06/16 06:35:42;;;;;;;14.27;6.50;;;19.60;99.90;;;;;;4953992;29;20027;-64
2023/06/16 06:38:08;;;;;;;14.35;6.80;;;19.80;99.90;;;;;;4954857;29;20078;-63
2023/06/16 06:40:35;;;;;;;9.40;6.43;;;19.80;99.90;;;;;;4954975;29;20536;-63
2023/06/16 06:43:01;;;;;;;8.13;6.40;;;19.90;99.90;;;;;;4954179;29;20058;-64
2023/06/16 06:45:26;;;;;;;10.43;7.10;;;19.90;99.90;;;;;;4954479;29;20054;-63
2023/06/16 06:47:52;;;;;;;12.65;7.32;;;20.00;99.90;;;;;;4954085;29;20068;-64
2023/06/16 06:50:17;;;;;;;13.73;6.70;;;20.10;99.90;;;;;;4954779;29;20380;-64
2023/06/16 06:52:43;;;;;;;13.23;6.25;;;20.10;99.90;;;;;;4953993;29;20074;-64
2023/06/16 06:55:09;;;;;;;10.88;6.97;;;20.20;99.90;;;;;;4954188;29;20516;-64
2023/06/16 06:57:35;;;;;;;12.45;6.30;;;20.30;99.90;;;;;;4954720;29;20102;-64
2023/06/16 07:00:00;;;;;;;10.25;5.90;;;20.30;99.90;;;;;;4953940;29;20068;-64
2023/06/16 07:02:26;;;;;;;9.48;6.55;;;20.40;99.90;;;;;;4954310;29;20118;-63
2023/06/16 07:04:51;;;;;;;8.57;5.68;;;20.50;99.90;;;;;;4953025;29;20077;-64
2023/06/16 07:07:17;;;;;;;8.82;5.45;;;20.60;91.40;;;;;;4954036;29;20042;-64
2023/06/16 07:09:43;;;;;;;9.88;5.93;;;20.80;91.10;;;;;;4953757;29;20031;-64
2023/06/16 07:12:09;;;;;;;13.43;6.05;;;20.90;90.60;;;;;;4955120;29;20095;-64
2023/06/16 07:14:35;;;;;;;9.75;6.65;;;21.10;90.40;;;;;;4947923;29;20110;-63
2023/06/16 07:17:02;;;;;;;9.82;6.43;;;21.20;90.20;;;;;;4952558;29;20089;-63
2023/06/16 07:19:28;;;;;;;7.60;6.13;;;21.30;88.80;;;;;;4953835;29;20122;-63
2023/06/16 07:21:54;;;;;;;11.43;7.18;;;21.30;88.60;;;;;;4954421;29;20102;-64
2023/06/16 07:24:21;;;;;;;14.20;6.80;;;21.30;89.40;;;;;;4954532;29;20030;-63
2023/06/16 07:26:47;;;;;;;10.80;5.50;;;21.40;88.70;;;;;;4954327;29;20369;-63
2023/06/16 07:29:12;;;;;;;8.23;6.20;;;21.60;87.60;;;;;;4954426;29;20043;-64
2023/06/16 07:31:38;;;;;;;8.77;6.38;;;21.60;87.50;;;;;;4954592;29;20055;-63
2023/06/16 07:34:03;;;;;;;17.80;5.80;;;21.80;87.00;;;;;;4953795;29;20580;-63
2023/06/16 07:36:31;;;;;;;9.63;6.40;;;22.00;86.30;;;;;;4954067;29;20668;-64
2023/06/16 07:38:56;;;;;;;8.95;5.18;;;22.00;85.70;;;;;;4952252;28;20392;-63
2023/06/16 07:41:22;;;;;;;12.55;5.45;;;22.10;85.60;;;;;;4953577;29;20038;-63
2023/06/16 07:43:48;;;;;;;14.48;6.20;;;22.20;84.40;;;;;;4947455;29;20035;-64
2023/06/16 07:46:14;;;;;;;11.38;6.10;;;22.40;83.50;;;;;;4954287;29;20027;-64
2023/06/16 07:48:40;;;;;;;10.95;6.03;;;22.60;83.10;;;;;;4953793;29;20039;-65
2023/06/16 07:51:06;;;;;;;13.15;5.15;;;22.60;82.40;;;;;;4953315;29;20094;-64
2023/06/16 07:53:31;;;;;;;9.50;5.28;;;22.70;81.30;;;;;;4954079;29;20039;-63
2023/06/16 07:55:57;;;;;;;11.00;5.30;;;22.80;82.60;;;;;;4951382;29;20054;-63
2023/06/16 07:58:23;;;;;;;7.60;4.28;;;22.80;81.30;;;;;;4954034;29;20464;-64
2023/06/16 08:00:51;;;;;;;8.55;5.43;;;22.90;79.10;;;;;;4952365;29;20035;-65
2023/06/16 08:03:18;;;;;;;10.32;4.60;;;23.00;79.90;;;;;;4952819;29;20424;-63
2023/06/16 08:05:44;;;;;;;7.50;5.55;;;23.10;79.30;;;;;;4952662;29;20106;-63
2023/06/16 08:08:09;;;;;;;7.70;4.50;;;23.20;79.80;;;;;;4953333;29;20529;-63
2023/06/16 08:10:35;;;;;;;10.23;4.75;;;23.20;79.90;;;;;;4952018;29;20035;-63
2023/06/16 08:13:01;;;;;;;14.07;5.40;;;23.30;78.60;;;;;;4953457;29;20035;-63
2023/06/16 08:15:26;;;;;;;7.60;4.90;;;23.40;77.90;;;;;;4953231;29;20027;-62
2023/06/16 08:17:52;;;;;;;5.90;4.50;;;23.50;76.80;;;;;;4950121;29;20031;-63
2023/06/16 08:20:18;;;;;;;11.32;4.40;;;23.50;77.00;;;;;;4953301;29;20027;-64
2023/06/16 08:22:44;;;;;;;9.60;4.30;;;23.60;75.90;;;;;;4952808;29;20090;-64
2023/06/16 08:25:09;;;;;;;15.05;5.07;;;23.70;73.80;;;;;;4949213;29;20058;-66
2023/06/16 08:27:35;;;;;;;9.98;3.60;;;23.80;73.00;;;;;;4952926;29;20406;-63
2023/06/16 08:30:01;;;;;;;9.73;4.13;;;23.90;70.90;;;;;;4951186;29;20126;-64
2023/06/16 08:32:27;;;;;;;6.13;4.18;;;24.00;71.20;;;;;;4952631;29;20035;-63
2023/06/16 08:34:52;;;;;;;4.70;4.15;;;24.00;70.40;;;;;;4951475;29;20035;-63
2023/06/16 08:37:18;;;;;;;11.73;4.10;;;24.20;68.30;;;;;;4953135;29;20144;-63
2023/06/16 08:39:45;;;;;;;7.63;3.45;;;24.20;67.00;;;;;;4951617;29;20477;-63
2023/06/16 08:42:11;;;;;;;8.63;3.80;;;24.40;67.60;;;;;;4950485;29;20123;-63
2023/06/16 08:44:39;;;;;;;8.50;4.22;;;24.60;67.10;;;;;;4953023;29;20035;-63
2023/06/16 08:47:05;;;;;;;7.38;3.60;;;24.70;66.70;;;;;;4952838;29;20034;-63
2023/06/16 08:49:31;;;;;;;3.88;3.10;;;24.70;65.10;;;;;;4951446;28;20054;-63
2023/06/16 08:52:01;;;;;;;4.63;3.58;;;24.60;62.60;;;;;;4942720;29;20086;-64
2023/06/16 08:54:31;;;;;;;7.78;3.85;;;24.70;63.70;;;;;;4951722;29;20111;-64
2023/06/16 08:57:01;;;;;;;7.45;3.47;;;24.90;65.10;;;;;;4948644;29;20028;-64
2023/06/16 08:59:30;;;;;;;7.38;3.75;;;25.00;62.80;;;;;;4952110;29;20042;-63
2023/06/16 09:01:58;;;;;;;4.73;3.20;;;25.10;62.50;;;;;;4952225;29;20035;-63
2023/06/16 09:04:24;;;;;;;4.68;3.38;;;25.10;61.20;;;;;;4951660;29;20016;-64
2023/06/16 09:06:56;;;;;;;3.95;3.45;;;25.10;59.70;;;;;;4952518;29;20037;-63
2023/06/16 09:09:22;;;;;;;6.88;3.53;;;25.00;60.10;;;;;;4952159;29;20033;-62
2023/06/16 09:12:10;;;;;;;5.72;3.90;;;24.90;60.60;;;;;;4952550;29;20050;-62
2023/06/16 09:14:41;;;;;;;3.50;3.03;;;24.90;60.40;;;;;;4952882;29;20118;-66
2023/06/16 09:17:08;;;;;;;5.30;3.42;;;24.90;60.60;;;;;;4954509;29;20038;-64
2023/06/16 09:19:46;;;;;;;5.82;3.22;;;25.00;61.00;;;;;;4952220;29;20093;-60
2023/06/16 09:22:16;;;;;;;5.55;3.60;;;25.00;60.30;;;;;;4952849;29;20035;-63
2023/06/16 09:24:42;;;;;;;6.53;3.67;;;24.90;60.40;;;;;;4948683;29;20066;-63
2023/06/16 09:27:08;;;;;;;8.00;4.05;;;24.90;61.90;;;;;;4952851;29;20476;-62
2023/06/16 09:29:34;;;;;;;7.03;3.85;;;24.90;60.20;;;;;;4952377;29;20186;-63
2023/06/16 09:32:09;;;;;;;4.18;3.78;;;25.00;61.00;;;;;;4949175;29;20058;-63
2023/06/16 09:34:36;;;;;;;9.27;4.00;;;;;;;;;;4945317;29;20039;-63
2023/06/16 09:37:10;;;;;;;6.38;3.90;;;25.50;90.30;;;;;;4951133;29;20035;-63
2023/06/16 09:39:36;;;;;;;9.90;4.13;;;25.60;85.30;;;;;;4951556;29;20027;-63
2023/06/16 09:42:02;;;;;;;7.07;3.75;;;25.60;59.60;;;;;;4934652;29;20036;-62
2023/06/16 09:44:30;;;;;;;6.35;3.97;;;25.70;59.80;;;;;;4951869;29;20496;-63
2023/06/16 09:46:58;;;;;;;4.82;3.70;;;25.80;59.40;;;;;;4951835;29;20100;-62
2023/06/16 09:49:25;;;;;;;7.40;3.60;;;26.00;59.30;;;;;;4952023;29;20043;-62
2023/06/16 09:51:56;;;;;;;7.00;3.72;;;26.00;59.40;;;;;;4944969;29;20082;-63
2023/06/16 09:54:22;;;;;;;10.68;3.97;;;25.90;59.50;;;;;;4951890;28;20428;-64
2023/06/16 09:56:48;;;;;;;8.13;4.05;;;25.80;59.80;;;;;;4949482;29;20023;-62
2023/06/16 09:59:15;;;;;;;9.73;4.20;;;25.80;60.20;;;;;;4945945;28;20035;-62
2023/06/16 10:01:43;;;;;;;8.85;3.75;;;26.00;59.80;;;;;;4952304;28;20432;-64
2023/06/16 10:04:10;;;;;;;4.40;3.08;;;26.20;57.80;;;;;;4955424;29;20114;-63
2023/06/16 10:06:54;;;;;;;9.50;4.05;;;26.30;57.40;;;;;;4956339;29;20039;-62
2023/06/16 10:09:47;;;;;;;4.70;3.60;;;26.70;90.20;;;;;;4955280;29;20061;-62
2023/06/16 10:12:14;;;;;;;6.68;4.00;;;26.60;90.10;;;;;;4955462;29;20031;-63
2023/06/16 10:14:44;;;;;;;6.70;3.53;;;;;;;;;;4955618;29;20062;-65
2023/06/16 10:17:13;;;;;;;12.57;4.40;;;;;;;;;;4947182;29;20027;-68
2023/06/16 10:19:41;;;;;;;4.70;4.00;;;;;;;;;;4955475;29;20464;-69
2023/06/16 10:22:07;;;;;;;7.00;3.10;;;;;;;;;;4955280;29;20066;-68
2023/06/16 10:24:33;;;;;;;7.43;3.50;;;;;;;;;;4947498;29;20050;-67
2023/06/16 10:27:00;;;;;;;6.75;3.70;;;;;;;;;;4955249;29;20043;-68
2023/06/16 10:29:29;;;;;;;8.45;3.47;;;;;;;;;;4954967;29;20432;-67
2023/06/16 10:32:06;;;;;;;8.32;3.97;;;27.20;87.60;;;;;;4954717;29;20027;-65
2023/06/16 10:34:34;;;;;;;6.95;3.67;;;26.50;88.80;;;;;;4954714;29;20397;-65
2023/06/16 10:37:01;;;;;;;5.93;4.03;;;26.40;89.20;;;;;;4954383;29;20031;-64
2023/06/16 10:39:27;;;;;;;6.97;3.70;;;26.10;90.20;;;;;;4954733;29;20049;-64
2023/06/16 10:42:00;;;;;;;8.25;3.95;;;26.20;90.40;;;;;;4954582;29;20035;-64
2023/06/16 10:44:32;;;;;;;11.65;4.03;;;26.20;90.30;;;;;;4955349;29;20074;-65
2023/06/16 10:47:10;;;;;;;9.05;3.78;;;26.30;89.90;;;;;;4954860;29;20823;-64
2023/06/16 10:50:04;;;;;;;6.93;3.78;;;26.50;89.70;;;;;;4955093;29;20038;-65
2023/06/16 10:52:44;;;;;;;5.40;3.35;;;26.50;89.60;;;;;;4949448;29;20034;-66
2023/06/16 10:55:37;;;;;;;9.43;3.80;;;26.60;89.70;;;;;;4953845;29;20047;-65
2023/06/16 10:58:15;;;;;;;5.93;3.55;;;26.90;90.90;;;;;;4951776;29;20023;-65
2023/06/16 11:01:04;;;;;;;9.38;4.00;;;26.90;90.50;;;;;;4954301;29;20037;-67
2023/06/16 11:03:38;;;;;;;7.68;4.20;;;26.60;91.00;;;;;;4954337;29;20027;-65
2023/06/16 11:06:05;;;;;;;7.57;4.05;;;;;;;;;;4954084;29;20019;-65
2023/06/16 11:08:32;;;;;;;9.20;3.95;;;;;;;;;;4954988;29;20102;-65
2023/06/16 11:11:06;;;;;;;6.18;3.90;;;;;;;;;;4934801;29;20038;-66
2023/06/16 11:13:39;;;;;;;5.30;3.75;;;;;;;;;;4953197;28;20035;-65
2023/06/16 11:16:07;;;;;;;7.30;3.70;;;26.30;90.00;;;;;;4954021;29;20031;-65
2023/06/16 11:18:35;;;;;;;5.68;3.95;;;26.60;90.50;;;;;;4954551;29;20070;-64
2023/06/16 11:21:07;;;;;;;5.85;3.80;;;26.60;90.00;;;;;;4953444;29;20120;-64
2023/06/16 11:23:34;;;;;;;7.75;4.18;;;26.80;90.40;;;;;;4954726;29;20043;-65
2023/06/16 11:26:20;;;;;;;13.20;3.58;;;26.70;90.50;;;;;;4953702;29;20039;-65
2023/06/16 11:28:47;;;;;;;6.13;3.83;;;26.70;90.60;;;;;;4953504;29;20042;-66
2023/06/16 11:31:14;;;;;;;7.05;3.47;;;;;;;;;;4954947;29;20059;-65
2023/06/16 11:33:41;;;;;;;8.05;3.67;;;;;;;;;;4953920;29;20439;-66
2023/06/16 11:36:18;;;;;;;7.60;4.07;;;26.60;90.50;;;;;;4950670;29;20027;-65
2023/06/16 11:38:46;;;;;;;8.50;4.35;;;26.80;90.20;;;;;;4952844;29;20059;-67
2023/06/16 11:41:15;;;;;;;6.22;3.47;;;;;;;;;;4954368;29;20480;-65
2023/06/16 11:43:42;;;;;;;6.13;3.90;;;;;;;;;;4950489;29;20035;-67
2023/06/16 11:46:07;;;;;;;7.35;3.63;;;27.80;69.90;;;;;;4953861;29;20042;-64
2023/06/16 11:48:33;;;;;;;8.75;4.15;;;27.80;75.50;;;;;;4954857;29;20035;-64
2023/06/16 11:51:00;;;;;;;5.13;3.55;;;27.80;76.30;;;;;;4950619;29;20051;-64
2023/06/16 11:53:26;;;;;;;8.90;4.30;;;27.80;54.40;;;;;;4953389;29;20393;-65
2023/06/16 11:55:51;;;;;;;5.78;3.58;;;28.00;54.90;;;;;;4952892;29;20051;-65
2023/06/16 11:58:18;;;;;;;9.38;4.70;;;28.00;65.40;;;;;;4950402;29;20035;-65
2023/06/16 12:00:44;;;;;;;10.85;4.60;;;28.10;87.80;;;;;;4953304;29;20039;-64
2023/06/16 12:03:10;;;;;;;4.82;4.10;;;28.00;53.20;;;;;;4954222;29;20035;-64
2023/06/16 12:05:36;;;;;;;4.93;3.80;;;27.80;52.90;;;;;;4953321;29;20039;-64
2023/06/16 12:08:02;;;;;;;6.93;4.15;;;27.70;53.70;;;;;;4953366;29;20034;-64
2023/06/16 12:10:28;;;;;;;9.32;4.78;;;27.90;53.40;;;;;;4950117;29;20027;-63
2023/06/16 12:12:53;;;;;;;8.18;4.10;;;28.10;53.10;;;;;;4939743;29;20035;-63
2023/06/16 12:15:20;;;;;;;6.88;4.07;;;28.20;53.10;;;;;;4953726;29;20058;-63
2023/06/16 12:17:49;;;;;;;5.47;3.97;;;28.30;53.10;;;;;;4952548;29;20042;-63
2023/06/16 12:20:16;;;;;;;8.02;4.10;;;28.20;52.70;;;;;;4933974;29;20443;-63
2023/06/16 12:22:44;;;;;;;6.53;4.05;;;28.30;53.50;;;;;;4952744;29;20090;-66
2023/06/16 12:25:10;;;;;;;9.18;4.03;;;;;;;;;;4952196;28;20058;-64
2023/06/16 12:27:38;;;;;;;6.88;3.92;;;;;;;;;;4950441;29;20030;-64
2023/06/16 12:30:05;;;;;;;9.30;3.78;;;;;;;;;;4952329;29;20028;-64
2023/06/16 12:32:36;;;;;;;6.68;4.05;;;;;;;;;;4951898;29;20035;-64
2023/06/16 12:35:02;;;;;;;7.55;4.35;;;28.40;82.60;;;;;;4952905;29;20176;-63
2023/06/16 12:37:29;;;;;;;6.90;4.15;;;28.40;83.70;;;;;;4953831;29;20461;-63
2023/06/16 12:40:08;;;;;;;7.30;4.43;;;28.40;86.50;;;;;;4951994;29;20098;-63
2023/06/16 12:42:35;;;;;;;6.80;3.90;;;28.50;87.20;;;;;;4945872;29;20106;-64
2023/06/16 12:45:02;;;;;;;5.82;4.25;;;28.20;88.40;;;;;;4950109;29;20274;-63
2023/06/16 12:47:35;;;;;;;8.23;4.43;;;28.10;89.10;;;;;;4953651;29;20046;-63
2023/06/16 12:50:03;;;;;;;4.80;4.30;;;28.20;90.60;;;;;;4952067;29;20651;-63
2023/06/16 12:52:30;;;;;;;8.27;4.70;;;28.30;53.30;;;;;;4953230;29;20023;-64
2023/06/16 12:54:58;;;;;;;14.90;4.22;;;28.60;54.20;;;;;;4951873;28;20047;-64
2023/06/16 12:57:24;;;;;;;8.98;4.47;;;28.70;53.80;;;;;;4953353;29;20469;-63
2023/06/16 12:59:51;;;;;;;6.25;4.57;;;28.60;53.00;;;;;;4942936;29;20118;-63